CheckWX is a tool to help pilots better visualize weather data.  It is not intended as a substitute for an official pre-flight weather briefing.

03:25:28 UTC

KCNM METAR
Cavern City Air Trml Airport
Carlsbad, New Mexico, USA
Current

32 mins ago

KCNM 270253Z AUTO 25007G15KT 190V290 10SM BKN065 26/17 A2983 RMK AO2 SLP047 T02610167 53018
Observed
May-27 @ 02:53 UTC
Wind
  • 250° at 7 KTS
  • Gusting to 15 KTS
Visibility
10 SM
Flight Rules
VFR
Cloud Levels
  • Broken at 6,500' AGL
Temperature
26°C / 79°F
Dewpoint
17°C / 63°F
Humidity
58%
Altimeter
29.83" Hg
Pressure
1010.12 hPa
Previous

2 hours ago

KCNM 270153Z AUTO 13014G23KT 10SM CLR 28/17 A2977 RMK AO2 PK WND 13027/0133 SLP026 T02780172
Observed
May-27 @ 01:53 UTC
Wind
  • 130° at 14 KTS
  • Gusting to 23 KTS
Visibility
10 SM
Flight Rules
VFR
Cloud Levels
  • Clear skies
Temperature
28°C / 82°F
Dewpoint
17°C / 63°F
Heat Index
28°C / 83°F
Humidity
51%
Altimeter
29.77" Hg
Pressure
1008.12 hPa
Previous

3 hours ago

KCNM 270053Z AUTO 13020G24KT 10SM CLR 29/16 A2978 RMK AO2 PK WND 15029/0019 SLP029 T02890161
Observed
May-27 @ 00:53 UTC
Wind
  • 130° at 20 KTS
  • Gusting to 24 KTS
Visibility
10 SM
Flight Rules
VFR
Cloud Levels
  • Clear skies
Temperature
29°C / 84°F
Dewpoint
16°C / 61°F
Heat Index
29°C / 84°F
Humidity
45%
Altimeter
29.78" Hg
Pressure
1008.42 hPa